Time;durP1;ratioP1;P1;durP2;ratioP2;P2;SDS_P1;SDS_P2;PMS_P1;PMS_P2;Temp;Humidity;BMP_temperature;BMP_pressure;BME280_temperature;BME280_humidity;BME280_pressure;Samples;Min_cycle;Max_cycle;Signal;HPM_P1;HPM_P2
2022/01/10 00:00:28;;;;;;;18.77;7.93;;;;;;;;;;4878210;29;20050;-71
2022/01/10 00:02:55;;;;;;;18.50;8.32;;;;;;;;;;4870909;29;20395;-71
2022/01/10 00:05:22;;;;;;;20.55;8.57;;;;;;;;;;4873748;29;20522;-71
2022/01/10 00:07:49;;;;;;;16.15;7.90;;;;;;;;;;4879670;29;20395;-71
2022/01/10 00:10:16;;;;;;;14.88;8.13;;;;;;;;;;4878363;29;20597;-72
2022/01/10 00:12:42;;;;;;;18.25;9.07;;;;;;;;;;4877795;29;20054;-70
2022/01/10 00:15:09;;;;;;;17.08;7.93;;;;;;;;;;4875491;29;20088;-71
2022/01/10 00:17:38;;;;;;;22.80;8.73;;;;;;;;;;4880506;29;20140;-70
2022/01/10 00:20:08;;;;;;;17.08;8.80;;;;;;;;;;4880233;29;20058;-70
2022/01/10 00:22:35;;;;;;;15.68;8.27;;;;;;;;;;4877616;29;20053;-71
2022/01/10 00:25:02;;;;;;;17.92;8.55;;;;;;;;;;4873437;29;20069;-71
2022/01/10 00:27:28;;;;;;;18.23;9.18;;;;;;;;;;4876051;29;20053;-71
2022/01/10 00:29:54;;;;;;;22.67;8.68;;;;;;;;;;4876781;29;20054;-71
2022/01/10 00:32:23;;;;;;;23.77;8.63;;;;;;;;;;4873490;29;20068;-71
2022/01/10 00:34:49;;;;;;;24.27;10.23;;;;;;;;;;4874688;29;20136;-70
2022/01/10 00:37:16;;;;;;;19.15;8.20;;;;;;;;;;4878929;29;20487;-71
2022/01/10 00:39:42;;;;;;;21.48;8.73;;;;;;;;;;4876698;29;20060;-71
2022/01/10 00:42:08;;;;;;;15.20;8.65;;;;;;;;;;4877660;29;20058;-71
2022/01/10 00:44:39;;;;;;;24.23;9.50;;;;;;;;;;4880027;29;20069;-71
2022/01/10 00:47:06;;;;;;;22.85;9.25;;;;;;;;;;4879269;29;20057;-71
2022/01/10 00:49:33;;;;;;;19.45;8.52;;;;;;;;;;4874438;29;20438;-70
2022/01/10 00:51:59;;;;;;;18.60;8.35;;;;;;;;;;4872271;29;20597;-70
2022/01/10 00:54:25;;;;;;;19.45;8.95;;;;;;;;;;4867929;29;20059;-70
2022/01/10 00:56:51;;;;;;;16.58;8.13;;;;;;;;;;4872310;29;20214;-70
2022/01/10 00:59:18;;;;;;;19.92;8.98;;;;;;;;;;4874444;29;20057;-70
2022/01/10 01:01:44;;;;;;;21.48;9.45;;;;;;;;;;4875515;29;20141;-69
2022/01/10 01:04:11;;;;;;;14.18;7.72;;;;;;;;;;4880445;29;20073;-70
2022/01/10 01:06:38;;;;;;;16.60;8.32;;;;;;;;;;4874996;29;20520;-71
2022/01/10 01:09:08;;;;;;;15.70;9.18;;;;;;;;;;4876022;29;20065;-69
2022/01/10 01:14:08;;;;;;;16.55;9.57;;;;;;;;;;4870725;29;20054;-70
2022/01/10 01:19:51;;;;;;;21.27;9.25;;;;;;;;;;4872395;29;20522;-70
2022/01/10 01:24:38;;;;;;;16.75;8.77;;;;;;;;;;4874396;29;20057;-69
2022/01/10 01:27:05;;;;;;;17.17;9.50;;;;;;;;;;4873631;29;20133;-69
2022/01/10 01:29:32;;;;;;;20.05;10.00;;;;;;;;;;4877155;29;20064;-71
2022/01/10 01:31:58;;;;;;;22.33;10.18;;;;;;;;;;4878470;29;20079;-71
2022/01/10 01:34:24;;;;;;;18.67;9.57;;;;;;;;;;4879290;29;20128;-71
2022/01/10 01:36:54;;;;;;;18.25;9.63;;;;;;;;;;4874829;29;20085;-71
2022/01/10 01:39:22;;;;;;;17.48;9.15;;;;;;;;;;4874653;29;20177;-70
2022/01/10 01:42:05;;;;;;;24.45;10.60;;;;;;;;;;4873769;29;20061;-70
2022/01/10 01:44:32;;;;;;;16.48;9.27;;;;;;;;;;4873027;29;20067;-70
2022/01/10 01:46:58;;;;;;;26.83;10.40;;;;;;;;;;4873136;29;20062;-70
2022/01/10 01:49:25;;;;;;;19.27;9.43;;;;;;;;;;4862802;29;20060;-70
2022/01/10 01:51:51;;;;;;;17.20;9.98;;;;;;;;;;4878926;29;20057;-70
2022/01/10 01:54:18;;;;;;;20.45;10.35;;;;;;;;;;4873295;29;20069;-70
2022/01/10 01:56:44;;;;;;;23.85;10.65;;;;;;;;;;4876227;29;20060;-70
2022/01/10 01:59:12;;;;;;;20.63;9.75;;;;;;;;;;4874167;29;20064;-71
2022/01/10 02:01:38;;;;;;;20.30;10.50;;;;;;;;;;4871703;29;20058;-70
2022/01/10 02:04:05;;;;;;;23.33;10.80;;;;;;;;;;4877185;29;20064;-71
2022/01/10 02:06:31;;;;;;;21.35;11.55;;;;;;;;;;4877825;29;20540;-70
2022/01/10 02:08:57;;;;;;;25.65;11.52;;;;;;;;;;4865292;29;20058;-69
2022/01/10 02:11:24;;;;;;;22.92;11.48;;;;;;;;;;4876164;29;20428;-69
2022/01/10 02:13:50;;;;;;;24.02;11.02;;;;;;;;;;4868949;29;20057;-70
2022/01/10 02:16:21;;;;;;;20.17;10.70;;;;;;;;;;4877630;29;20053;-70
2022/01/10 02:18:49;;;;;;;22.92;10.70;;;;;;;;;;4875111;29;20407;-70
2022/01/10 02:21:16;;;;;;;22.65;10.88;;;;;;;;;;4876343;29;20057;-70
2022/01/10 02:23:42;;;;;;;21.70;11.27;;;;;;;;;;4874790;29;20057;-72
2022/01/10 02:26:08;;;;;;;20.30;10.90;;;;;;;;;;4873638;29;20080;-71
2022/01/10 02:28:35;;;;;;;15.70;10.27;;;;;;;;;;4876179;29;20181;-71
2022/01/10 02:31:01;;;;;;;23.05;12.05;;;;;;;;;;4876754;29;20080;-71
2022/01/10 02:33:29;;;;;;;24.83;11.35;;;;;;;;;;4874200;29;20064;-70
2022/01/10 02:36:16;;;;;;;18.77;11.20;;;;;;;;;;4864196;29;20054;-69
2022/01/10 02:38:49;;;;;;;17.83;9.95;;;;;;;;;;4869116;29;20084;-70
2022/01/10 02:41:20;;;;;;;30.05;12.60;;;;;;;;;;4872042;29;20065;-71
2022/01/10 02:43:46;;;;;;;24.98;11.52;;;;;;;;;;4872802;29;20057;-70
2022/01/10 02:46:12;;;;;;;22.58;11.43;;;;;;;;;;4875659;29;20068;-70
2022/01/10 02:48:40;;;;;;;20.17;11.32;;;;;;;;;;4875892;29;20145;-71
2022/01/10 02:51:06;;;;;;;17.55;11.52;;;;;;;;;;4875318;29;20049;-71
2022/01/10 02:53:32;;;;;;;17.92;11.90;;;;;;;;;;4877063;29;20058;-71
2022/01/10 02:55:58;;;;;;;16.50;11.27;;;;;;;;;;4876179;29;20064;-70
2022/01/10 02:58:25;;;;;;;20.55;11.82;;;;;;;;;;4875208;29;20152;-70
2022/01/10 03:00:51;;;;;;;20.98;12.57;;;;;;;;;;4876651;29;20062;-70
2022/01/10 03:03:17;;;;;;;20.65;12.23;;;;;;;;;;4876595;29;20092;-71
2022/01/10 03:05:44;;;;;;;21.38;11.77;;;;;;;;;;4874425;29;20064;-70
2022/01/10 03:08:10;;;;;;;24.60;12.52;;;;;;;;;;4875932;29;20064;-70
2022/01/10 03:10:36;;;;;;;20.63;11.75;;;;;;;;;;4876295;29;20061;-70
2022/01/10 03:13:03;;;;;;;26.40;12.57;;;;;;;;;;4873515;29;20057;-70
2022/01/10 03:15:30;;;;;;;23.35;13.25;;;;;;;;;;4872976;29;20148;-70
2022/01/10 03:17:56;;;;;;;17.20;11.88;;;;;;;;;;4876278;29;20053;-70
2022/01/10 03:20:25;;;;;;;29.33;13.10;;;;;;;;;;4875115;29;20062;-69
2022/01/10 03:22:52;;;;;;;25.25;12.85;;;;;;;;;;4869192;29;20267;-70
2022/01/10 03:25:19;;;;;;;26.23;13.05;;;;;;;;;;4871921;29;20153;-70
2022/01/10 03:27:46;;;;;;;27.45;13.05;;;;;;;;;;4869429;29;20503;-70
2022/01/10 03:30:15;;;;;;;25.13;13.18;;;;;;;;;;4873455;29;20057;-71
2022/01/10 03:32:42;;;;;;;23.65;13.00;;;;;;;;;;4873316;29;20060;-71
2022/01/10 03:35:08;;;;;;;24.52;14.73;;;;;;;;;;4874492;29;20133;-69
2022/01/10 03:37:35;;;;;;;24.15;14.25;;;;;;;;;;4875022;29;20057;-71
2022/01/10 03:40:01;;;;;;;24.67;14.15;;;;;;;;;;4867253;29;20061;-68
2022/01/10 03:42:27;;;;;;;24.65;14.40;;;;;;;;;;4875851;29;20057;-69
2022/01/10 03:44:53;;;;;;;26.35;13.27;;;;;;;;;;4873624;29;20065;-71
2022/01/10 03:47:21;;;;;;;18.40;12.20;;;;;;;;;;4871276;29;20480;-69
2022/01/10 03:49:47;;;;;;;23.05;13.40;;;;;;;;;;4870557;29;20065;-70
2022/01/10 03:52:14;;;;;;;27.13;14.00;;;;;;;;;;4876472;29;20068;-70
2022/01/10 03:54:40;;;;;;;23.60;13.65;;;;;;;;;;4870380;29;20053;-69
2022/01/10 03:57:07;;;;;;;25.92;14.30;;;;;;;;;;4870795;29;20082;-71
2022/01/10 03:59:33;;;;;;;23.58;13.88;;;;;;;;;;4865671;29;20064;-71
2022/01/10 04:01:59;;;;;;;22.02;13.23;;;;;;;;;;4869584;29;20058;-71
2022/01/10 04:04:26;;;;;;;20.95;13.80;;;;;;;;;;4868640;29;20442;-71
2022/01/10 04:06:52;;;;;;;19.45;13.02;;;;;;;;;;4864767;29;20085;-71
2022/01/10 04:09:20;;;;;;;23.73;13.10;;;;;;;;;;4872936;29;20057;-70
2022/01/10 04:11:46;;;;;;;20.95;12.73;;;;;;;;;;4859608;29;20057;-70
2022/01/10 04:14:18;;;;;;;19.55;12.68;;;;;;;;;;4874334;29;20057;-70
2022/01/10 04:16:44;;;;;;;25.52;13.80;;;;;;;;;;4874178;29;20089;-70
2022/01/10 04:19:11;;;;;;;20.40;12.40;;;;;;;;;;4874219;29;20058;-69
2022/01/10 04:21:37;;;;;;;22.73;12.93;;;;;;;;;;4877133;29;20061;-70
2022/01/10 04:24:04;;;;;;;26.45;12.60;;;;;;;;;;4872808;29;20060;-71
2022/01/10 04:26:30;;;;;;;27.00;13.25;;;;;;;;;;4858959;29;20452;-70
2022/01/10 04:28:56;;;;;;;24.73;13.55;;;;;;;;;;4870618;29;20058;-71
2022/01/10 04:31:23;;;;;;;24.08;13.68;;;;;;;;;;4875549;29;20061;-70
2022/01/10 04:33:49;;;;;;;23.42;13.90;;;;;;;;;;4870595;29;20154;-71
2022/01/10 04:36:15;;;;;;;27.77;14.25;;;;;;;;;;4868249;29;20065;-71
2022/01/10 04:38:42;;;;;;;22.02;13.75;;;;;;;;;;4875969;29;20068;-71
2022/01/10 04:41:09;;;;;;;23.45;14.68;;;;;;;;;;4876543;29;20148;-70
2022/01/10 04:43:36;;;;;;;24.33;14.43;;;;;;;;;;4876896;29;20085;-70
2022/01/10 04:46:03;;;;;;;31.65;15.95;;;;;;;;;;4875640;29;20148;-70
2022/01/10 04:48:29;;;;;;;19.77;14.90;;;;;;;;;;4880505;29;20058;-70
2022/01/10 04:51:15;;;;;;;29.42;15.48;;;;;;;;;;4871665;29;20065;-71
2022/01/10 04:53:43;;;;;;;28.35;15.20;;;;;;;;;;4879140;29;20088;-71
2022/01/10 04:56:10;;;;;;;30.00;16.67;;;;;;;;;;4871281;29;20058;-71
2022/01/10 04:58:36;;;;;;;29.38;16.20;;;;;;;;;;4874740;29;20060;-69
2022/01/10 05:01:03;;;;;;;32.22;14.55;;;;;;;;;;4875068;29;20054;-70
2022/01/10 05:03:30;;;;;;;31.70;15.85;;;;;;;;;;4869500;29;20528;-71
2022/01/10 05:05:57;;;;;;;23.83;15.45;;;;;;;;;;4875925;29;20066;-71
2022/01/10 05:08:24;;;;;;;32.75;16.70;;;;;;;;;;4872283;29;20058;-71
2022/01/10 05:10:51;;;;;;;23.30;15.27;;;;;;;;;;4876667;29;20083;-71
2022/01/10 05:13:18;;;;;;;28.52;15.73;;;;;;;;;;4876593;29;20053;-71
2022/01/10 05:15:49;;;;;;;26.00;14.85;;;;;;;;;;4873757;29;20067;-71
2022/01/10 05:18:19;;;;;;;28.92;16.38;;;;;;;;;;4871774;29;20529;-70
2022/01/10 05:20:46;;;;;;;23.88;16.95;;;;;;;;;;4874577;29;20050;-70
2022/01/10 05:23:12;;;;;;;31.27;16.70;;;;;;;;;;4872177;29;20399;-70
2022/01/10 05:25:40;;;;;;;21.15;15.90;;;;;;;;;;4878694;29;20065;-70
2022/01/10 05:28:07;;;;;;;24.63;16.92;;;;;;;;;;4877192;29;20059;-70
2022/01/10 05:30:33;;;;;;;24.67;17.52;;;;;;;;;;4867233;29;20060;-70
2022/01/10 05:33:00;;;;;;;38.00;18.02;;;;;;;;;;4867274;29;20050;-70
2022/01/10 05:35:26;;;;;;;28.17;17.13;;;;;;;;;;4873940;29;20144;-70
2022/01/10 05:37:52;;;;;;;24.33;16.73;;;;;;;;;;4878162;29;20053;-71
2022/01/10 05:40:19;;;;;;;26.70;17.52;;;;;;;;;;4878782;29;20053;-71
2022/01/10 05:42:45;;;;;;;29.23;17.42;;;;;;;;;;4876883;29;20064;-71
2022/01/10 05:45:12;;;;;;;32.88;18.50;;;;;;;;;;4873777;29;20540;-72
2022/01/10 05:47:43;;;;;;;29.38;18.25;;;;;;;;;;4865972;29;20058;-71
2022/01/10 05:50:11;;;;;;;33.30;18.77;;;;;;;;;;4869735;29;20084;-70
2022/01/10 05:52:37;;;;;;;32.67;18.65;;;;;;;;;;4878507;29;20057;-71
2022/01/10 05:55:04;;;;;;;37.25;18.65;;;;;;;;;;4877178;29;20054;-71
2022/01/10 05:57:31;;;;;;;34.03;19.40;;;;;;;;;;4877776;29;20060;-71
2022/01/10 05:59:57;;;;;;;34.17;18.83;;;;;;;;;;4872324;29;20084;-70
2022/01/10 06:02:24;;;;;;;35.13;18.65;;;;;;;;;;4875802;29;20085;-70
2022/01/10 06:04:50;;;;;;;33.05;18.60;;;;;;;;;;4877165;29;20050;-70
2022/01/10 06:07:17;;;;;;;33.58;18.92;;;;;;;;;;4879515;29;20536;-70
2022/01/10 06:09:43;;;;;;;34.40;18.23;;;;;;;;;;4877948;29;20429;-70
2022/01/10 06:12:10;;;;;;;27.02;17.02;;;;;;;;;;4873346;29;20549;-70
2022/01/10 06:14:36;;;;;;;30.98;19.63;;;;;;;;;;4874229;29;20109;-70
2022/01/10 06:17:03;;;;;;;30.20;18.20;;;;;;;;;;4873614;29;20060;-70
2022/01/10 06:19:29;;;;;;;32.65;19.25;;;;;;;;;;4877231;29;20053;-70
2022/01/10 06:21:55;;;;;;;28.30;18.38;;;;;;;;;;4874963;29;20057;-70
2022/01/10 06:24:22;;;;;;;28.58;19.00;;;;;;;;;;4877353;29;20059;-70
2022/01/10 06:26:48;;;;;;;36.45;18.45;;;;;;;;;;4873667;29;20054;-70
2022/01/10 06:29:14;;;;;;;33.22;18.30;;;;;;;;;;4875621;29;20456;-70
2022/01/10 06:31:41;;;;;;;29.15;17.42;;;;;;;;;;4876214;29;20513;-70
2022/01/10 06:34:07;;;;;;;28.80;17.58;;;;;;;;;;4870457;29;20057;-70
2022/01/10 06:36:33;;;;;;;31.30;17.77;;;;;;;;;;4875112;29;20057;-71
2022/01/10 06:39:00;;;;;;;29.10;17.83;;;;;;;;;;4870542;29;20057;-70
2022/01/10 06:41:26;;;;;;;32.00;18.45;;;;;;;;;;4872529;29;20503;-72
2022/01/10 06:43:52;;;;;;;32.47;19.00;;;;;;;;;;4870304;29;20502;-70
2022/01/10 06:46:19;;;;;;;39.17;18.02;;;;;;;;;;4877720;29;20050;-71
2022/01/10 06:48:45;;;;;;;32.50;17.75;;;;;;;;;;4872623;29;20065;-71
2022/01/10 06:51:14;;;;;;;29.55;17.40;;;;;;;;;;4865042;29;20061;-72
2022/01/10 06:53:40;;;;;;;37.17;19.10;;;;;;;;;;4865706;29;20064;-70
2022/01/10 06:56:06;;;;;;;42.42;19.73;;;;;;;;;;4866586;29;20594;-71
2022/01/10 06:58:33;;;;;;;28.77;18.27;;;;;;;;;;4873693;29;20053;-72
2022/01/10 07:00:59;;;;;;;28.90;18.80;;;;;;;;;;4864877;29;20061;-72
2022/01/10 07:03:26;;;;;;;27.05;18.58;;;;;;;;;;4875577;29;20062;-73
2022/01/10 07:05:52;;;;;;;33.83;18.00;;;;;;;;;;4857041;29;20144;-71
2022/01/10 07:08:19;;;;;;;32.33;19.13;;;;;;;;;;4874671;29;20064;-72
2022/01/10 07:10:46;;;;;;;25.45;17.50;;;;;;;;;;4866309;29;20062;-71
2022/01/10 07:13:12;;;;;;;31.42;17.80;;;;;;;;;;4869950;29;20057;-71
2022/01/10 07:15:38;;;;;;;30.58;17.90;;;;;;;;;;4875314;29;20057;-70
2022/01/10 07:18:05;;;;;;;30.48;18.88;;;;;;;;;;4867512;29;20058;-71
2022/01/10 07:20:32;;;;;;;39.53;20.02;;;;;;;;;;4869109;29;20058;-71
2022/01/10 07:22:58;;;;;;;37.22;18.83;;;;;;;;;;4865796;29;20062;-71
2022/01/10 07:25:25;;;;;;;34.50;20.75;;;;;;;;;;4871671;29;20511;-70
2022/01/10 07:27:51;;;;;;;32.50;18.48;;;;;;;;;;4858318;29;20069;-70
2022/01/10 07:30:17;;;;;;;25.45;17.40;;;;;;;;;;4865973;29;20061;-70
2022/01/10 07:32:44;;;;;;;37.70;19.85;;;;;;;;;;4865138;29;20102;-71
2022/01/10 07:35:11;;;;;;;30.80;18.88;;;;;;;;;;4865205;29;20062;-71
2022/01/10 07:37:37;;;;;;;34.63;18.02;;;;;;;;;;4866958;29;20054;-71
2022/01/10 07:40:04;;;;;;;33.97;18.85;;;;;;;;;;4872250;29;20060;-70
2022/01/10 07:42:37;;;;;;;31.80;18.35;;;;;;;;;;4860507;29;20068;-70
2022/01/10 07:45:03;;;;;;;28.73;17.92;;;;;;;;;;4864636;29;20082;-72
2022/01/10 07:47:30;;;;;;;34.67;18.95;;;;;;;;;;4866750;29;20400;-73
2022/01/10 07:49:56;;;;;;;28.85;17.90;;;;;;;;;;4864376;29;20518;-71
2022/01/10 07:52:25;;;;;;;35.45;20.92;;;;;;;;;;4862002;29;20094;-72
2022/01/10 07:54:51;;;;;;;29.90;19.25;;;;;;;;;;4876953;29;20561;-72
2022/01/10 07:57:18;;;;;;;27.10;17.10;;;;;;;;;;4877263;29;20053;-72
2022/01/10 07:59:44;;;;;;;28.33;17.85;;;;;;;;;;4865223;29;20058;-72
2022/01/10 08:02:11;;;;;;;24.30;17.52;;;;;;;;;;4860218;29;20163;-72
2022/01/10 08:04:38;;;;;;;29.15;18.27;;;;;;;;;;4860762;29;20141;-71
2022/01/10 08:07:04;;;;;;;35.83;18.92;;;;;;;;;;4868447;29;20140;-70
2022/01/10 08:09:31;;;;;;;29.83;19.27;;;;;;;;;;4875754;29;20911;-72
2022/01/10 08:11:59;;;;;;;29.73;19.92;;;;;;;;;;4869834;29;20057;-71
2022/01/10 08:14:27;;;;;;;36.78;19.33;;;;;;;;;;4875854;29;20490;-72
2022/01/10 08:16:53;;;;;;;31.90;19.92;;;;;;;;;;4886289;29;20531;-72
2022/01/10 08:19:19;;;;;;;36.80;19.98;;;;;;;;;;4882419;29;20093;-72
2022/01/10 08:21:46;;;;;;;31.65;19.65;;;;;;;;;;4871034;29;20529;-71
2022/01/10 08:24:12;;;;;;;28.33;21.23;;;;;;;;;;4867108;29;20524;-72
2022/01/10 08:26:40;;;;;;;27.55;19.80;;;;;;;;;;4864941;29;20062;-72
2022/01/10 08:29:07;;;;;;;32.70;21.15;;;;;;;;;;4868462;29;20057;-72
2022/01/10 08:31:33;;;;;;;37.22;21.38;;;;;;;;;;4863076;29;20061;-71
2022/01/10 08:34:03;;;;;;;36.40;21.17;;;;;;;;;;4867926;29;20069;-71
2022/01/10 08:36:29;;;;;;;31.35;21.17;;;;;;;;;;4869188;29;20439;-71
2022/01/10 08:38:56;;;;;;;34.05;21.98;;;;;;;;;;4868710;29;20066;-70
2022/01/10 08:41:22;;;;;;;31.38;21.73;;;;;;;;;;4869241;29;20437;-70
2022/01/10 08:43:48;;;;;;;34.42;22.98;;;;;;;;;;4870306;29;20054;-71
2022/01/10 08:46:15;;;;;;;37.05;22.80;;;;;;;;;;4876696;29;20399;-71
2022/01/10 08:48:48;;;;;;;38.53;22.33;;;;;;;;;;4862569;29;20096;-70
2022/01/10 08:51:14;;;;;;;35.67;22.38;;;;;;;;;;4876008;29;20518;-70
2022/01/10 08:53:41;;;;;;;36.60;22.10;;;;;;;;;;4873100;29;20140;-70
2022/01/10 08:56:07;;;;;;;32.78;20.73;;;;;;;;;;4868685;29;20053;-72
2022/01/10 08:58:33;;;;;;;31.45;20.58;;;;;;;;;;4869204;29;20057;-72
2022/01/10 09:01:00;;;;;;;36.78;20.50;;;;;;;;;;4868154;29;20072;-72
2022/01/10 09:03:27;;;;;;;33.00;20.58;;;;;;;;;;4868829;29;20147;-71
2022/01/10 09:05:55;;;;;;;33.20;20.00;;;;;;;;;;4874593;29;20062;-70
2022/01/10 09:08:22;;;;;;;36.33;20.35;;;;;;;;;;4876548;29;20061;-71
2022/01/10 09:10:48;;;;;;;29.88;20.50;;;;;;;;;;4877673;29;20080;-72
2022/01/10 09:13:15;;;;;;;37.38;22.45;;;;;;;;;;4879146;29;20524;-71
2022/01/10 09:15:41;;;;;;;38.28;20.75;;;;;;;;;;4873507;29;20058;-70
2022/01/10 09:18:07;;;;;;;33.80;19.55;;;;;;;;;;4876109;29;20054;-70
2022/01/10 09:20:34;;;;;;;30.80;20.00;;;;;;;;;;4877745;29;20426;-71
2022/01/10 09:23:00;;;;;;;33.10;20.52;;;;;;;;;;4878514;29;20080;-69
2022/01/10 09:25:27;;;;;;;36.47;21.40;;;;;;;;;;4879046;29;20064;-70
2022/01/10 09:27:54;;;;;;;34.78;21.20;;;;;;;;;;4878032;29;20068;-72
2022/01/10 09:30:21;;;;;;;34.35;21.95;;;;;;;;;;4873205;29;20054;-71
2022/01/10 09:32:47;;;;;;;35.08;18.92;;;;;;;;;;4878585;29;20180;-71
2022/01/10 09:35:14;;;;;;;35.08;20.15;;;;;;;;;;4878260;29;20064;-72
2022/01/10 09:37:40;;;;;;;36.42;19.65;;;;;;;;;;4874707;29;20053;-70
2022/01/10 09:40:07;;;;;;;32.08;19.98;;;;;;;;;;4879074;29;20144;-71
2022/01/10 09:42:34;;;;;;;35.63;21.95;;;;;;;;;;4879282;29;20073;-71
2022/01/10 09:45:04;;;;;;;35.67;20.80;;;;;;;;;;4879475;29;20096;-70
2022/01/10 09:47:31;;;;;;;36.13;22.17;;;;;;;;;;4880485;29;20064;-70
2022/01/10 09:50:06;;;;;;;32.13;20.65;;;;;;;;;;4878345;29;20069;-70
2022/01/10 09:52:32;;;;;;;33.00;20.38;;;;;;;;;;4877004;29;20173;-71
2022/01/10 09:54:59;;;;;;;37.60;21.83;;;;;;;;;;4878611;29;20064;-71
2022/01/10 09:57:25;;;;;;;34.70;21.52;;;;;;;;;;4878213;29;20053;-71
2022/01/10 09:59:51;;;;;;;35.47;20.45;;;;;;;;;;4869660;29;20093;-71
2022/01/10 10:02:18;;;;;;;35.88;22.40;;;;;;;;;;4851497;29;20060;-71
2022/01/10 10:04:49;;;;;;;39.47;22.63;;;;;;;;;;4880395;29;20080;-71
2022/01/10 10:07:15;;;;;;;34.15;22.50;;;;;;;;;;4863268;29;20061;-72
2022/01/10 10:09:42;;;;;;;31.23;21.67;;;;;;;;;;4861707;29;20061;-72
2022/01/10 10:12:08;;;;;;;34.20;22.27;;;;;;;;;;4873200;29;20137;-71
2022/01/10 10:14:36;;;;;;;38.85;22.98;;;;;;;;;;4875781;29;20058;-72
2022/01/10 10:17:11;;;;;;;41.30;23.60;;;;;;;;;;4879433;29;20084;-71
2022/01/10 10:19:38;;;;;;;36.67;23.88;;;;;;;;;;4878410;29;20064;-71
2022/01/10 10:22:05;;;;;;;37.80;23.42;;;;;;;;;;4874575;29;20062;-71
2022/01/10 10:24:31;;;;;;;36.33;23.27;;;;;;;;;;4859654;29;20049;-72
2022/01/10 10:26:57;;;;;;;40.08;23.33;;;;;;;;;;4844318;29;20498;-71
2022/01/10 10:29:27;;;;;;;36.50;23.80;;;;;;;;;;4859306;29;20062;-71
2022/01/10 10:31:54;;;;;;;40.42;24.75;;;;;;;;;;4872354;29;20429;-71
2022/01/10 10:34:28;;;;;;;39.00;23.75;;;;;;;;;;4863251;29;20140;-72
2022/01/10 10:37:00;;;;;;;40.13;23.73;;;;;;;;;;4876798;29;20054;-71
2022/01/10 10:39:27;;;;;;;42.70;23.52;;;;;;;;;;4870840;29;20061;-72
2022/01/10 10:41:54;;;;;;;39.50;23.25;;;;;;;;;;4877273;29;20524;-72
2022/01/10 10:44:21;;;;;;;50.60;26.38;;;;;;;;;;4879730;29;20514;-71
2022/01/10 10:46:49;;;;;;;37.95;24.63;;;;;;;;;;4880013;29;20065;-71
2022/01/10 10:49:19;;;;;;;37.22;23.98;;;;;;;;;;4879233;29;20054;-72
2022/01/10 10:51:48;;;;;;;40.22;24.88;;;;;;;;;;4879373;29;20113;-72
2022/01/10 10:54:15;;;;;;;40.20;24.02;;;;;;;;;;4879624;29;20152;-71
2022/01/10 10:56:43;;;;;;;37.15;24.92;;;;;;;;;;4865002;29;20057;-72
2022/01/10 10:59:11;;;;;;;39.35;25.48;;;;;;;;;;4870338;29;20067;-72
2022/01/10 11:01:38;;;;;;;41.42;25.10;;;;;;;;;;4871641;29;20054;-73
2022/01/10 11:04:06;;;;;;;43.42;26.05;;;;;;;;;;4861073;29;20050;-73
2022/01/10 11:06:33;;;;;;;40.33;25.92;;;;;;;;;;4862982;29;20065;-72
2022/01/10 11:09:01;;;;;;;45.97;25.58;;;;;;;;;;4867311;29;20067;-71
2022/01/10 11:11:28;;;;;;;44.83;26.40;;;;;;;;;;4866155;29;20536;-72
2022/01/10 11:13:56;;;;;;;44.03;26.02;;;;;;;;;;4860979;29;20498;-70
2022/01/10 11:16:23;;;;;;;39.65;24.92;;;;;;;;;;4877454;29;20053;-70
2022/01/10 11:18:50;;;;;;;38.88;24.80;;;;;;;;;;4873389;29;20500;-70
2022/01/10 11:21:16;;;;;;;42.58;24.27;;;;;;;;;;4875743;29;20062;-72
2022/01/10 11:23:44;;;;;;;36.47;25.48;;;;;;;;;;4860289;29;20054;-72
2022/01/10 11:26:14;;;;;;;41.85;26.20;;;;;;;;;;4860680;29;20137;-73
2022/01/10 11:28:55;;;;;;;38.28;22.98;;;;;;;;;;4876123;29;20168;-71
2022/01/10 11:31:23;;;;;;;36.15;24.85;;;;;;;;;;4860897;29;20753;-71
2022/01/10 11:33:50;;;;;;;40.17;23.75;;;;;;;;;;4860366;29;20114;-71
2022/01/10 11:36:19;;;;;;;42.33;23.67;;;;;;;;;;4860063;29;20141;-71
2022/01/10 11:38:49;;;;;;;36.40;23.23;;;;;;;;;;4859752;29;20064;-72
2022/01/10 11:41:18;;;;;;;38.65;23.55;;;;;;;;;;4866023;29;20068;-72
2022/01/10 11:43:45;;;;;;;46.80;24.33;;;;;;;;;;4878690;29;20058;-71
2022/01/10 11:46:20;;;;;;;39.10;22.85;;;;;;;;;;4878819;29;20054;-70
2022/01/10 11:48:48;;;;;;;40.33;23.35;;;;;;;;;;4878649;29;21009;-70
2022/01/10 11:51:18;;;;;;;35.83;23.13;;;;;;;;;;4871356;29;20061;-71
2022/01/10 11:53:46;;;;;;;38.53;24.48;;;;;;;;;;4866934;29;20072;-72
2022/01/10 11:56:24;;;;;;;46.55;24.38;;;;;;;;;;4870219;29;20053;-71
2022/01/10 11:59:06;;;;;;;40.95;25.55;;;;;;;;;;4870621;29;20063;-71
2022/01/10 12:01:37;;;;;;;37.28;24.13;;;;;;;;;;4868815;29;20540;-71
2022/01/10 12:04:04;;;;;;;37.58;24.63;;;;;;;;;;4878604;29;20054;-72
2022/01/10 12:06:30;;;;;;;38.20;24.50;;;;;;;;;;4866635;29;20176;-72
2022/01/10 12:08:57;;;;;;;36.83;23.38;;;;;;;;;;4868491;29;20087;-72
2022/01/10 12:11:24;;;;;;;38.30;22.05;;;;;;;;;;4870172;29;20057;-71
2022/01/10 12:13:55;;;;;;;32.00;21.80;;;;;;;;;;4870195;29;20058;-71
2022/01/10 12:16:21;;;;;;;37.47;21.50;;;;;;;;;;4869471;29;20068;-72
2022/01/10 12:18:48;;;;;;;50.55;23.95;;;;;;;;;;4867902;29;20061;-73
2022/01/10 12:21:15;;;;;;;43.03;24.13;;;;;;;;;;4881518;29;20516;-72
2022/01/10 12:23:42;;;;;;;41.65;22.55;;;;;;;;;;4881665;29;20049;-72
2022/01/10 12:26:08;;;;;;;47.85;24.17;;;;;;;;;;4881018;29;20494;-72
2022/01/10 12:28:34;;;;;;;36.92;24.42;;;;;;;;;;4876982;29;20061;-72
2022/01/10 12:31:02;;;;;;;40.50;23.05;;;;;;;;;;4865738;29;20058;-72
2022/01/10 12:33:29;;;;;;;33.70;21.83;;;;;;;;;;4868523;29;20061;-72
2022/01/10 12:35:55;;;;;;;44.30;24.05;;;;;;;;;;4869631;29;20073;-72
2022/01/10 12:38:22;;;;;;;33.45;22.17;;;;;;;;;;4858972;29;20058;-71
2022/01/10 12:40:49;;;;;;;37.58;23.75;;;;;;;;;;4868995;29;20060;-71
2022/01/10 12:43:16;;;;;;;39.20;23.23;;;;;;;;;;4870078;29;20092;-71
2022/01/10 12:45:43;;;;;;;36.55;22.98;;;;;;;;;;4867719;29;20065;-71
2022/01/10 12:48:11;;;;;;;40.90;22.48;;;;;;;;;;4872495;29;20477;-72
2022/01/10 12:50:38;;;;;;;37.17;20.35;;;;;;;;;;4874480;29;20058;-71
2022/01/10 12:53:05;;;;;;;37.63;22.48;;;;;;;;;;4874923;29;20183;-71
2022/01/10 12:55:32;;;;;;;37.40;22.20;;;;;;;;;;4878961;29;20079;-72
2022/01/10 12:57:58;;;;;;;36.90;21.25;;;;;;;;;;4881619;29;20053;-70
2022/01/10 13:00:25;;;;;;;33.70;19.92;;;;;;;;;;4870640;29;20061;-71
2022/01/10 13:02:51;;;;;;;36.35;22.02;;;;;;;;;;4873211;29;20054;-70
2022/01/10 13:05:18;;;;;;;34.58;20.15;;;;;;;;;;4869884;29;20057;-70
2022/01/10 13:07:46;;;;;;;40.00;21.63;;;;;;;;;;4868381;29;20506;-70
2022/01/10 13:10:21;;;;;;;36.90;21.50;;;;;;;;;;4870943;29;20066;-70
2022/01/10 13:12:48;;;;;;;38.22;22.23;;;;;;;;;;4866865;29;20084;-71
2022/01/10 13:15:17;;;;;;;38.90;21.85;;;;;;;;;;4860376;29;20061;-71
2022/01/10 13:17:51;;;;;;;36.53;19.60;;;;;;;;;;4867075;29;20477;-70
2022/01/10 13:20:19;;;;;;;41.10;20.05;;;;;;;;;;4871011;29;20057;-70
2022/01/10 13:22:45;;;;;;;33.95;18.63;;;;;;;;;;4874943;29;20498;-70
2022/01/10 13:25:16;;;;;;;37.78;17.30;;;;;;;;;;4866545;29;20058;-72
2022/01/10 13:27:50;;;;;;;32.22;17.42;;;;;;;;;;4865853;29;20061;-71
2022/01/10 13:30:18;;;;;;;30.48;15.77;;;;;;;;;;4880770;29;20655;-70
2022/01/10 13:32:46;;;;;;;30.92;15.18;;;;;;;;;;4872359;29;20079;-71
2022/01/10 13:35:14;;;;;;;31.20;15.63;;;;;;;;;;4870005;29;20115;-71
2022/01/10 13:37:50;;;;;;;28.45;14.80;;;;;;;;;;4867399;29;20059;-71
2022/01/10 13:40:27;;;;;;;32.42;15.68;;;;;;;;;;4868059;29;20084;-71
2022/01/10 13:42:53;;;;;;;31.15;15.35;;;;;;;;;;4866605;29;20506;-71
2022/01/10 13:45:41;;;;;;;26.15;15.18;;;;;;;;;;4850984;29;20132;-71
2022/01/10 13:48:11;;;;;;;28.90;14.82;;;;;;;;;;4866667;29;20063;-71
2022/01/10 13:50:40;;;;;;;28.90;15.63;;;;;;;;;;4876802;29;20129;-71
2022/01/10 13:53:08;;;;;;;27.10;14.13;;;;;;;;;;4879459;29;20057;-71
2022/01/10 13:55:35;;;;;;;34.10;15.00;;;;;;;;;;4880096;29;20058;-71
2022/01/10 13:58:04;;;;;;;31.20;15.15;;;;;;;;;;4871579;29;20547;-71
2022/01/10 14:00:31;;;;;;;28.05;14.70;;;;;;;;;;4870037;29;20068;-72
2022/01/10 14:02:58;;;;;;;24.33;13.65;;;;;;;;;;4866057;29;20053;-71
2022/01/10 14:05:26;;;;;;;24.35;13.60;;;;;;;;;;4868994;29;20153;-70
2022/01/10 14:07:54;;;;;;;24.50;13.10;;;;;;;;;;4866457;29;20077;-70
2022/01/10 14:10:22;;;;;;;31.13;14.20;;;;;;;;;;4858923;29;20061;-71
2022/01/10 14:12:48;;;;;;;23.35;11.85;;;;;;;;;;4858912;29;20053;-70
2022/01/10 14:15:22;;;;;;;23.13;12.07;;;;;;;;;;4861339;29;20058;-71
2022/01/10 14:17:49;;;;;;;29.02;13.10;;;;;;;;;;4865904;29;20516;-71
2022/01/10 14:20:15;;;;;;;24.80;13.65;;;;;;;;;;4867588;29;20062;-72
2022/01/10 14:22:41;;;;;;;25.77;13.13;;;;;;;;;;4867255;29;20529;-71
2022/01/10 14:25:08;;;;;;;25.55;12.98;;;;;;;;;;4867297;29;20533;-71
2022/01/10 14:27:34;;;;;;;27.15;14.13;;;;;;;;;;4866977;29;20065;-70